createdAt,value
2022-12-08T00:02:27.134Z,24.98
2022-12-08T00:07:47.347Z,22.95
2022-12-08T00:12:49.007Z,21.70
2022-12-08T00:17:50.631Z,20.25
2022-12-08T00:22:52.270Z,23.48
2022-12-08T00:27:53.945Z,19.80
2022-12-08T00:32:55.613Z,20.10
2022-12-08T00:38:00.838Z,20.17
2022-12-08T00:43:02.927Z,19.10
2022-12-08T00:48:04.984Z,21.05
2022-12-08T00:53:06.701Z,24.73
2022-12-08T00:58:08.693Z,22.65
2022-12-08T01:03:11.441Z,17.70
2022-12-08T01:08:13.257Z,21.83
2022-12-08T01:13:15.328Z,22.13
2022-12-08T01:18:17.050Z,19.95
2022-12-08T01:23:18.843Z,23.25
2022-12-08T01:28:20.559Z,24.35
2022-12-08T01:33:22.674Z,22.13
2022-12-08T01:38:24.401Z,21.38
2022-12-08T01:43:26.168Z,18.73
2022-12-08T01:48:28.042Z,22.40
2022-12-08T01:53:35.141Z,22.20
2022-12-08T01:58:40.072Z,21.77
2022-12-08T02:03:50.102Z,22.17
2022-12-08T02:08:52.759Z,18.33
2022-12-08T02:13:56.351Z,19.77
2022-12-08T02:19:34.997Z,17.35
2022-12-08T02:24:44.485Z,18.02
2022-12-08T02:30:02.473Z,16.85
2022-12-08T02:35:26.084Z,18.75
2022-12-08T02:40:35.296Z,19.77
2022-12-08T02:45:44.430Z,18.83
2022-12-08T02:50:46.294Z,18.95
2022-12-08T02:56:05.667Z,21.30
2022-12-08T03:01:34.362Z,18.60
2022-12-08T03:06:48.016Z,23.63
2022-12-08T03:11:54.114Z,19.85
2022-12-08T03:16:58.437Z,20.35
2022-12-08T03:22:05.121Z,20.13
2022-12-08T03:32:51.193Z,21.77
2022-12-08T03:38:02.926Z,26.20
2022-12-08T03:43:04.932Z,21.17
2022-12-08T03:48:06.804Z,23.77
2022-12-08T03:53:08.764Z,22.90
2022-12-08T03:58:10.678Z,24.75
2022-12-08T04:03:12.340Z,23.70
2022-12-08T04:08:14.242Z,22.88
2022-12-08T04:13:15.991Z,22.67
2022-12-08T04:18:18.611Z,22.27
2022-12-08T04:23:20.332Z,22.55
2022-12-08T04:28:22.122Z,23.05
2022-12-08T04:33:23.986Z,21.65
2022-12-08T04:38:26.177Z,22.63
2022-12-08T04:43:28.135Z,21.13
2022-12-08T04:48:30.135Z,22.52
2022-12-08T04:53:32.858Z,22.63
2022-12-08T04:58:34.854Z,20.85
2022-12-08T05:03:36.963Z,24.38
2022-12-08T05:08:38.649Z,21.85
2022-12-08T05:13:40.599Z,21.85
2022-12-08T05:18:43.399Z,19.38
2022-12-08T05:23:45.116Z,16.20
2022-12-08T05:28:46.896Z,22.05
2022-12-08T05:33:50.153Z,18.05
2022-12-08T05:38:51.902Z,22.13
2022-12-08T05:43:53.625Z,18.30
2022-12-08T05:48:55.275Z,15.93
2022-12-08T05:53:57.421Z,15.73
2022-12-08T05:58:59.264Z,16.52
2022-12-08T06:04:03.223Z,19.83
2022-12-08T06:09:06.440Z,16.33
2022-12-08T06:14:11.834Z,17.17
2022-12-08T06:19:13.644Z,14.73
2022-12-08T06:24:15.397Z,16.65
2022-12-08T06:29:17.179Z,15.40
2022-12-08T06:34:19.041Z,17.42
2022-12-08T06:39:20.712Z,21.85
2022-12-08T06:44:22.489Z,18.55
2022-12-08T06:49:24.596Z,16.15
2022-12-08T06:54:26.649Z,16.40
2022-12-08T06:59:28.432Z,17.33
2022-12-08T07:04:30.162Z,15.05
2022-12-08T07:09:31.814Z,13.32
2022-12-08T07:14:33.599Z,13.68
2022-12-08T07:19:35.267Z,14.95
2022-12-08T07:24:37.025Z,14.60
2022-12-08T07:29:38.689Z,14.77
2022-12-08T07:34:40.404Z,13.55
2022-12-08T07:39:42.109Z,14.73
2022-12-08T07:44:43.766Z,13.27
2022-12-08T07:49:45.439Z,14.88
2022-12-08T07:54:47.616Z,12.82
2022-12-08T07:59:49.363Z,15.98
2022-12-08T08:04:51.872Z,16.52
2022-12-08T08:09:53.756Z,18.38
2022-12-08T08:14:55.483Z,13.80
2022-12-08T08:19:57.315Z,14.00
2022-12-08T08:24:59.430Z,13.05
2022-12-08T08:30:01.154Z,14.27
2022-12-08T08:35:03.441Z,14.45
2022-12-08T08:40:06.051Z,14.52
2022-12-08T08:45:08.291Z,11.85
2022-12-08T08:50:10.087Z,13.57
2022-12-08T08:55:12.032Z,13.98
2022-12-08T09:00:14.662Z,12.70
2022-12-08T09:05:16.611Z,14.85
2022-12-08T09:10:18.472Z,14.90
2022-12-08T09:15:20.913Z,16.30
2022-12-08T09:20:22.664Z,12.82
2022-12-08T09:25:24.505Z,12.93
2022-12-08T09:30:26.483Z,11.55
2022-12-08T09:35:28.341Z,11.85
2022-12-08T09:40:37.338Z,14.20
2022-12-08T09:45:39.911Z,12.52
2022-12-08T09:50:48.603Z,14.85
2022-12-08T09:56:03.186Z,13.27
2022-12-08T10:01:04.932Z,13.05
2022-12-08T10:06:18.911Z,12.25
2022-12-08T10:11:32.586Z,11.60
2022-12-08T10:16:39.602Z,10.15
2022-12-08T10:21:41.518Z,14.00
2022-12-08T10:26:43.527Z,13.07
2022-12-08T10:31:45.610Z,12.77
2022-12-08T10:36:52.720Z,14.45
2022-12-08T10:41:54.507Z,13.88
2022-12-08T10:46:56.520Z,11.10
2022-12-08T10:51:58.916Z,12.88
2022-12-08T10:57:00.667Z,11.07
2022-12-08T11:02:02.550Z,10.73
2022-12-08T11:07:11.334Z,9.60
2022-12-08T11:12:15.244Z,12.35
2022-12-08T11:17:22.777Z,14.10
2022-12-08T11:22:26.619Z,12.68
2022-12-08T11:27:28.818Z,13.02
2022-12-08T11:32:30.538Z,12.50
2022-12-08T11:37:39.198Z,13.68
2022-12-08T11:43:25.926Z,9.65
2022-12-08T11:49:06.381Z,12.40
2022-12-08T11:54:28.751Z,12.25
2022-12-08T11:59:39.646Z,11.80
2022-12-08T12:04:50.848Z,12.38
2022-12-08T12:10:08.024Z,13.55
2022-12-08T12:15:27.840Z,13.55
2022-12-08T12:20:37.319Z,12.05
2022-12-08T12:25:54.127Z,12.23
2022-12-08T12:31:03.718Z,10.88
2022-12-08T12:36:07.776Z,12.32
2022-12-08T12:41:12.261Z,10.00
2022-12-08T12:46:22.834Z,11.43
2022-12-08T12:51:45.058Z,12.07
2022-12-08T12:56:55.303Z,10.27
2022-12-08T13:01:57.438Z,13.25
2022-12-08T13:06:59.958Z,13.23
2022-12-08T13:12:12.870Z,12.68
2022-12-08T13:17:24.465Z,12.48
2022-12-08T13:22:51.014Z,11.50
2022-12-08T13:38:25.830Z,11.93
2022-12-08T13:43:55.803Z,12.25
2022-12-08T13:51:23.985Z,10.93
2022-12-08T14:00:08.027Z,12.70
2022-12-08T14:05:19.056Z,12.90
2022-12-08T14:10:27.770Z,16.02
2022-12-08T14:15:37.196Z,13.38
2022-12-08T14:21:05.068Z,16.25
2022-12-08T14:26:05.353Z,15.82
2022-12-08T14:31:08.468Z,18.17
2022-12-08T14:36:14.707Z,16.75
2022-12-08T14:41:16.380Z,14.13
2022-12-08T14:46:23.181Z,15.00
2022-12-08T14:51:32.285Z,15.20
2022-12-08T14:56:51.206Z,14.65
2022-12-08T15:02:10.161Z,17.83
2022-12-08T15:07:16.366Z,15.25
2022-12-08T15:12:27.059Z,15.48
2022-12-08T15:17:34.616Z,16.77
2022-12-08T15:22:36.284Z,17.60
2022-12-08T15:27:47.056Z,17.40
2022-12-08T15:32:54.230Z,16.17
2022-12-08T15:37:56.131Z,17.13
2022-12-08T15:42:57.891Z,18.00
2022-12-08T15:47:59.645Z,17.63
2022-12-08T15:53:01.338Z,18.40
2022-12-08T15:58:52.366Z,17.83
2022-12-08T16:09:00.562Z,18.98
2022-12-08T16:15:01.450Z,20.75
2022-12-08T16:19:34.417Z,24.33
2022-12-08T16:24:36.246Z,25.15
2022-12-08T16:29:38.079Z,19.85
2022-12-08T16:34:39.819Z,22.70
2022-12-08T16:39:45.723Z,20.40
2022-12-08T16:44:47.910Z,19.75
2022-12-08T16:49:49.600Z,17.95
2022-12-08T16:54:51.569Z,22.48
2022-12-08T16:59:53.523Z,21.52
2022-12-08T17:04:55.261Z,18.85
2022-12-08T17:09:57.324Z,18.05
2022-12-08T17:14:59.833Z,20.73
2022-12-08T17:20:05.645Z,19.42
2022-12-08T17:25:08.182Z,18.27
2022-12-08T17:30:12.627Z,16.13
2022-12-08T17:35:15.495Z,16.67
2022-12-08T17:40:17.278Z,19.10
2022-12-08T17:45:19.636Z,17.73
2022-12-08T17:50:21.438Z,18.55
2022-12-08T17:55:23.624Z,18.05
2022-12-08T18:00:26.382Z,15.93
2022-12-08T18:05:28.771Z,19.88
2022-12-08T18:10:30.787Z,19.48
2022-12-08T18:15:37.548Z,17.45
2022-12-08T18:20:41.094Z,16.95
2022-12-08T18:25:43.543Z,19.80
2022-12-08T18:30:46.084Z,21.38
2022-12-08T18:35:48.236Z,20.40
2022-12-08T18:40:50.588Z,15.95
2022-12-08T18:46:02.394Z,16.95
2022-12-08T18:51:10.275Z,19.02
2022-12-08T18:56:21.544Z,20.73
2022-12-08T19:01:23.805Z,21.65
2022-12-08T19:06:27.235Z,20.73
2022-12-08T19:11:29.916Z,25.45
2022-12-08T19:16:32.244Z,19.75
2022-12-08T19:21:35.309Z,23.50
2022-12-08T19:26:39.043Z,20.67
2022-12-08T19:31:42.191Z,20.92
2022-12-08T19:36:44.978Z,18.88
2022-12-08T19:42:06.624Z,18.58
2022-12-08T19:47:09.640Z,22.45
2022-12-08T19:52:13.440Z,18.95
2022-12-08T19:57:17.094Z,19.02
2022-12-08T20:02:20.432Z,19.42
2022-12-08T20:07:22.704Z,19.48
2022-12-08T20:12:27.253Z,20.48
2022-12-08T20:17:29.746Z,19.15
2022-12-08T20:22:32.206Z,20.02
2022-12-08T20:27:35.137Z,24.15
2022-12-08T20:32:37.639Z,20.70
2022-12-08T20:37:39.943Z,20.40
2022-12-08T20:42:42.636Z,19.05
2022-12-08T20:47:46.853Z,23.15
2022-12-08T20:52:49.313Z,22.50
2022-12-08T20:57:51.781Z,26.27
2022-12-08T21:02:56.540Z,23.52
2022-12-08T21:07:58.955Z,22.77
2022-12-08T21:13:02.391Z,24.10
2022-12-08T21:18:04.969Z,20.80
2022-12-08T21:23:06.869Z,19.95
2022-12-08T21:28:08.986Z,20.00
2022-12-08T21:33:10.737Z,21.40
2022-12-08T21:38:12.771Z,25.48
2022-12-08T21:43:14.601Z,25.55
2022-12-08T21:48:16.448Z,20.55
2022-12-08T21:53:18.158Z,22.65
2022-12-08T21:58:20.065Z,22.33
2022-12-08T22:03:22.023Z,23.90
2022-12-08T22:08:24.093Z,23.48
2022-12-08T22:13:25.974Z,25.50
2022-12-08T22:18:28.155Z,24.08
2022-12-08T22:23:30.064Z,24.15
2022-12-08T22:28:35.405Z,22.92
2022-12-08T22:33:38.157Z,24.33
2022-12-08T22:38:40.885Z,23.77
2022-12-08T22:43:43.874Z,24.27
2022-12-08T22:48:45.708Z,23.35
2022-12-08T22:53:48.358Z,22.55
2022-12-08T22:58:51.206Z,20.38
2022-12-08T23:03:53.512Z,16.70
2022-12-08T23:08:56.165Z,17.63
2022-12-08T23:14:00.433Z,19.45
2022-12-08T23:19:02.309Z,21.13
2022-12-08T23:24:04.493Z,20.05
2022-12-08T23:29:06.251Z,21.45
2022-12-08T23:34:08.059Z,21.25
2022-12-08T23:39:11.072Z,21.38
2022-12-08T23:44:12.853Z,21.67
2022-12-08T23:49:14.747Z,19.88
2022-12-08T23:54:17.438Z,21.05
2022-12-08T23:59:19.369Z,19.17
